Wetterdaten: Woche 15.06.15 - 21.06.15 (KW25)
Datum Zeit Temp. A. Feuchte A. Luftdruck Regen Wind Richtung Sonnenschein ET UV Solar Taupunkt Windchill Windben
15.06.2015 00:00 17,4 C 76 % 1007,9 hPa 0,0 l/m 6,9 km/h (2 Bft) N 0,00 h 0,051 mm 0,0 UV-I 0 W/m 13,0 C 16,7 C 12,2 km/h (2 Bft)
15.06.2015 01:00 16,4 C 80 % 1008,2 hPa 0,0 l/m 6,3 km/h (2 Bft) N 0,00 h 0,025 mm 0,0 UV-I 0 W/m 12,9 C 15,9 C 10,0 km/h (2 Bft)
15.06.2015 02:00 15,4 C 85 % 1008,3 hPa 0,0 l/m 4,8 km/h (1 Bft) N 0,00 h 0,025 mm 0,0 UV-I 0 W/m 12,8 C 14,9 C 8,7 km/h (2 Bft)
15.06.2015 03:00 14,8 C 86 % 1008,7 hPa 0,0 l/m 2,5 km/h (1 Bft) N 0,00 h 0,025 mm 0,0 UV-I 0 W/m 12,5 C 14,7 C 5,4 km/h (1 Bft)
15.06.2015 04:00 14,7 C 86 % 1009,2 hPa 0,0 l/m 3,4 km/h (1 Bft) N 0,00 h 0,000 mm 0,0 UV-I 0 W/m 12,4 C 14,4 C 7,2 km/h (2 Bft)
15.06.2015 05:00 14,7 C 86 % 1009,8 hPa 0,0 l/m 4,5 km/h (1 Bft) N 0,00 h 0,000 mm 0,0 UV-I 11 W/m 12,3 C 14,3 C 8,9 km/h (2 Bft)
15.06.2015 06:00 14,7 C 85 % 1010,0 hPa 0,0 l/m 2,8 km/h (1 Bft) N 0,27 h 0,025 mm 0,0 UV-I 39 W/m 12,2 C 14,5 C 6,3 km/h (2 Bft)
15.06.2015 07:00 15,1 C 84 % 1010,8 hPa 0,0 l/m 0,2 km/h (0 Bft) N 0,93 h 0,025 mm 0,7 UV-I 102 W/m 12,3 C 15,1 C 0,9 km/h (0 Bft)
15.06.2015 08:00 16,0 C 80 % 1011,6 hPa 0,0 l/m 5,3 km/h (1 Bft) N-NO 1,00 h 0,051 mm 1,0 UV-I 163 W/m 12,5 C 15,6 C 10,8 km/h (2 Bft)
15.06.2015 09:00 16,2 C 78 % 1012,1 hPa 0,0 l/m 5,6 km/h (2 Bft) N 1,00 h 0,102 mm 1,3 UV-I 182 W/m 12,3 C 15,7 C 10,4 km/h (2 Bft)
15.06.2015 10:00 16,6 C 77 % 1012,6 hPa 0,0 l/m 7,1 km/h (2 Bft) N-NO 1,00 h 0,127 mm 2,1 UV-I 259 W/m 12,5 C 15,8 C 12,9 km/h (3 Bft)
15.06.2015 11:00 16,5 C 76 % 1013,3 hPa 0,0 l/m 7,1 km/h (2 Bft) N-NO 1,00 h 0,152 mm 1,7 UV-I 194 W/m 12,3 C 15,5 C 12,4 km/h (2 Bft)
15.06.2015 12:00 16,1 C 79 % 1014,0 hPa 0,0 l/m 8,0 km/h (2 Bft) N-NO 1,00 h 0,127 mm 1,6 UV-I 175 W/m 12,4 C 15,0 C 13,8 km/h (3 Bft)
15.06.2015 13:00 15,6 C 80 % 1014,6 hPa 0,0 l/m 8,2 km/h (2 Bft) N 1,00 h 0,127 mm 1,1 UV-I 114 W/m 12,2 C 14,5 C 14,5 km/h (3 Bft)
15.06.2015 14:00 15,2 C 81 % 1015,0 hPa 0,0 l/m 9,1 km/h (2 Bft) N 1,00 h 0,076 mm 1,2 UV-I 123 W/m 12,0 C 13,6 C 15,7 km/h (3 Bft)
15.06.2015 15:00 14,5 C 83 % 1015,3 hPa 0,0 l/m 5,9 km/h (2 Bft) N 1,00 h 0,076 mm 0,7 UV-I 79 W/m 11,6 C 14,0 C 11,9 km/h (2 Bft)
15.06.2015 16:00 14,9 C 82 % 1015,4 hPa 0,0 l/m 1,9 km/h (1 Bft) N 1,00 h 0,051 mm 0,8 UV-I 104 W/m 11,8 C 14,8 C 5,1 km/h (1 Bft)
15.06.2015 17:00 15,3 C 78 % 1015,4 hPa 0,0 l/m 5,7 km/h (2 Bft) N 1,00 h 0,051 mm 0,6 UV-I 84 W/m 11,4 C 14,6 C 11,1 km/h (2 Bft)
15.06.2015 18:00 15,1 C 76 % 1015,8 hPa 0,0 l/m 6,5 km/h (2 Bft) N-NO 1,00 h 0,051 mm 0,5 UV-I 87 W/m 10,9 C 14,2 C 12,2 km/h (2 Bft)
15.06.2015 19:00 15,2 C 76 % 1016,2 hPa 0,0 l/m 1,7 km/h (1 Bft) N-NO 1,00 h 0,076 mm 0,5 UV-I 98 W/m 11,0 C 15,2 C 5,2 km/h (1 Bft)
15.06.2015 20:00 14,8 C 76 % 1016,6 hPa 0,0 l/m 1,4 km/h (1 Bft) N 0,42 h 0,051 mm 0,0 UV-I 46 W/m 10,7 C 14,8 C 4,9 km/h (1 Bft)
15.06.2015 21:00 13,0 C 81 % 1017,3 hPa 0,0 l/m 1,6 km/h (1 Bft) N-NO 0,00 h 0,025 mm 0,0 UV-I 9 W/m 9,9 C 13,0 C 5,1 km/h (1 Bft)
15.06.2015 22:00 11,9 C 84 % 1018,0 hPa 0,0 l/m 0,5 km/h (0 Bft) N 0,00 h 0,000 mm 0,0 UV-I 0 W/m 9,4 C 11,9 C 1,3 km/h (1 Bft)
15.06.2015 23:00 11,0 C 88 % 1018,5 hPa 0,0 l/m 0,0 km/h (0 Bft) N 0,00 h 0,000 mm 0,0 UV-I 0 W/m 9,1 C 11,0 C 0,0 km/h (0 Bft)
16.06.2015 00:00 9,9 C 91 % 1018,8 hPa 0,0 l/m 0,0 km/h (0 Bft) N 0,00 h 0,000 mm 0,0 UV-I 0 W/m 8,6 C 9,9 C 0,0 km/h (0 Bft)
16.06.2015 01:00 8,9 C 93 % 1019,1 hPa 0,0 l/m 0,0 km/h (0 Bft) N 0,00 h 0,000 mm 0,0 UV-I 0 W/m 7,9 C 8,9 C 0,0 km/h (0 Bft)
16.06.2015 02:00 8,2 C 94 % 1019,1 hPa 0,0 l/m 0,1 km/h (0 Bft) N 0,00 h 0,000 mm 0,0 UV-I 0 W/m 7,4 C 8,2 C 0,1 km/h (0 Bft)
16.06.2015 03:00 7,4 C 95 % 1019,2 hPa 0,0 l/m 0,3 km/h (0 Bft) N 0,00 h 0,000 mm 0,0 UV-I 0 W/m 6,7 C 7,4 C 0,6 km/h (0 Bft)
16.06.2015 04:00 6,9 C 95 % 1019,4 hPa 0,0 l/m 0,2 km/h (0 Bft) N 0,00 h 0,000 mm 0,0 UV-I 0 W/m 6,2 C 6,9 C 0,5 km/h (0 Bft)
16.06.2015 05:00 6,9 C 95 % 1019,8 hPa 0,0 l/m 0,2 km/h (0 Bft) N 0,00 h 0,000 mm 0,0 UV-I 15 W/m 6,2 C 6,9 C 0,5 km/h (0 Bft)
16.06.2015 06:00 8,1 C 94 % 1020,2 hPa 0,0 l/m 0,1 km/h (0 Bft) N 0,70 h 0,000 mm 0,0 UV-I 59 W/m 7,2 C 8,1 C 0,2 km/h (0 Bft)
16.06.2015 07:00 9,9 C 88 % 1020,4 hPa 0,0 l/m 0,2 km/h (0 Bft) N 1,00 h 0,025 mm 0,7 UV-I 158 W/m 8,0 C 9,9 C 1,0 km/h (0 Bft)
16.06.2015 08:00 12,0 C 80 % 1020,4 hPa 0,0 l/m 0,8 km/h (0 Bft) N 1,00 h 0,076 mm 1,4 UV-I 227 W/m 8,6 C 12,0 C 2,6 km/h (1 Bft)
16.06.2015 09:00 14,8 C 68 % 1020,1 hPa 0,0 l/m 2,0 km/h (1 Bft) N 1,00 h 0,127 mm 2,9 UV-I 566 W/m 8,9 C 14,8 C 5,2 km/h (1 Bft)
16.06.2015 10:00 15,9 C 61 % 1020,1 hPa 0,0 l/m 2,1 km/h (1 Bft) N 1,00 h 0,305 mm 3,0 UV-I 418 W/m 8,5 C 15,9 C 5,0 km/h (1 Bft)
16.06.2015 11:00 16,4 C 59 % 1020,1 hPa 0,0 l/m 0,8 km/h (0 Bft) N 1,00 h 0,229 mm 3,6 UV-I 453 W/m 8,5 C 16,4 C 2,2 km/h (1 Bft)
16.06.2015 12:00 16,9 C 56 % 1020,0 hPa 0,0 l/m 1,2 km/h (1 Bft) N 1,00 h 0,254 mm 3,6 UV-I 396 W/m 8,2 C 16,9 C 2,8 km/h (1 Bft)
16.06.2015 13:00 16,6 C 54 % 1019,8 hPa 0,0 l/m 1,9 km/h (1 Bft) N 1,00 h 0,229 mm 2,3 UV-I 264 W/m 7,2 C 16,6 C 4,5 km/h (1 Bft)
16.06.2015 14:00 18,6 C 51 % 1019,3 hPa 0,0 l/m 3,2 km/h (1 Bft) N 1,00 h 0,152 mm 4,7 UV-I 534 W/m 8,1 C 18,4 C 6,6 km/h (2 Bft)
16.06.2015 15:00 18,7 C 47 % 1018,9 hPa 0,0 l/m 2,4 km/h (1 Bft) N 1,00 h 0,381 mm 3,3 UV-I 475 W/m 7,2 C 18,7 C 5,8 km/h (2 Bft)
16.06.2015 16:00 18,6 C 46 % 1018,7 hPa 0,0 l/m 6,6 km/h (2 Bft) N 1,00 h 0,305 mm 2,8 UV-I 405 W/m 6,8 C 18,0 C 12,7 km/h (3 Bft)
16.06.2015 17:00 17,8 C 48 % 1018,6 hPa 0,0 l/m 5,1 km/h (1 Bft) N 1,00 h 0,279 mm 1,6 UV-I 257 W/m 6,7 C 17,4 C 9,8 km/h (2 Bft)
16.06.2015 18:00 16,9 C 51 % 1018,5 hPa 0,0 l/m 4,7 km/h (1 Bft) N-NO 1,00 h 0,178 mm 0,9 UV-I 141 W/m 6,7 C 16,7 C 10,3 km/h (2 Bft)
16.06.2015 19:00 15,8 C 55 % 1018,9 hPa 0,0 l/m 8,3 km/h (2 Bft) N 1,00 h 0,102 mm 0,6 UV-I 74 W/m 6,9 C 14,5 C 14,9 km/h (3 Bft)
16.06.2015 20:00 14,4 C 63 % 1019,5 hPa 0,0 l/m 10,6 km/h (2 Bft) N 0,72 h 0,102 mm 0,0 UV-I 66 W/m 7,5 C 12,4 C 18,0 km/h (3 Bft)
16.06.2015 21:00 12,8 C 69 % 1020,5 hPa 0,0 l/m 9,4 km/h (2 Bft) N 0,00 h 0,076 mm 0,0 UV-I 8 W/m 7,2 C 10,8 C 15,0 km/h (3 Bft)
16.06.2015 22:00 11,3 C 73 % 1021,3 hPa 0,0 l/m 6,2 km/h (2 Bft) N-NO 0,00 h 0,051 mm 0,0 UV-I 0 W/m 6,6 C 10,4 C 11,4 km/h (2 Bft)
16.06.2015 23:00 10,9 C 74 % 1021,8 hPa 0,0 l/m 4,2 km/h (1 Bft) N-NO 0,00 h 0,025 mm 0,0 UV-I 0 W/m 6,4 C 10,7 C 7,9 km/h (2 Bft)
17.06.2015 00:00 9,7 C 78 % 1022,0 hPa 0,0 l/m 2,4 km/h (1 Bft) N 0,00 h 0,025 mm 0,0 UV-I 0 W/m 6,0 C 9,7 C 4,5 km/h (1 Bft)
17.06.2015 01:00 9,7 C 78 % 1022,3 hPa 0,0 l/m 3,7 km/h (1 Bft) N 0,00 h 0,025 mm 0,0 UV-I 0 W/m 6,0 C 9,7 C 5,8 km/h (2 Bft)
17.06.2015 02:00 9,1 C 80 % 1022,5 hPa 0,0 l/m 5,7 km/h (2 Bft) N 0,00 h 0,025 mm 0,0 UV-I 0 W/m 5,8 C 8,7 C 8,9 km/h (2 Bft)
17.06.2015 03:00 8,0 C 83 % 1022,7 hPa 0,0 l/m 0,3 km/h (0 Bft) N 0,00 h 0,025 mm 0,0 UV-I 0 W/m 5,3 C 8,0 C 0,8 km/h (0 Bft)
17.06.2015 04:00 7,2 C 86 % 1022,8 hPa 0,0 l/m 1,4 km/h (1 Bft) N 0,00 h 0,000 mm 0,0 UV-I 0 W/m 5,0 C 7,2 C 2,5 km/h (1 Bft)
17.06.2015 05:00 6,5 C 89 % 1023,2 hPa 0,0 l/m 0,1 km/h (0 Bft) N 0,00 h 0,000 mm 0,0 UV-I 12 W/m 4,9 C 6,5 C 0,2 km/h (0 Bft)
17.06.2015 06:00 6,6 C 90 % 1023,3 hPa 0,0 l/m 0,4 km/h (0 Bft) N 0,00 h 0,000 mm 0,0 UV-I 24 W/m 5,0 C 6,6 C 1,0 km/h (0 Bft)
17.06.2015 07:00 9,0 C 81 % 1023,3 hPa 0,0 l/m 0,1 km/h (0 Bft) N 0,55 h 0,000 mm 1,1 UV-I 203 W/m 5,9 C 9,0 C 0,5 km/h (0 Bft)
17.06.2015 08:00 11,9 C 69 % 1023,3 hPa 0,0 l/m 2,1 km/h (1 Bft) N 1,00 h 0,102 mm 1,8 UV-I 494 W/m 6,3 C 11,8 C 5,4 km/h (1 Bft)
17.06.2015 09:00 13,9 C 62 % 1023,2 hPa 0,0 l/m 2,4 km/h (1 Bft) N 1,00 h 0,229 mm 3,2 UV-I 694 W/m 6,8 C 13,7 C 5,5 km/h (2 Bft)
17.06.2015 10:00 15,0 C 56 % 1022,9 hPa 0,0 l/m 1,7 km/h (1 Bft) N 1,00 h 0,356 mm 4,3 UV-I 759 W/m 6,4 C 15,0 C 4,6 km/h (1 Bft)
17.06.2015 11:00 16,1 C 50 % 1022,6 hPa 0,0 l/m 1,5 km/h (1 Bft) N 1,00 h 0,406 mm 5,5 UV-I 834 W/m 5,7 C 16,0 C 4,1 km/h (1 Bft)
17.06.2015 12:00 17,2 C 47 % 1022,2 hPa 0,0 l/m 1,4 km/h (1 Bft) N 1,00 h 0,406 mm 6,9 UV-I 930 W/m 5,7 C 17,2 C 3,8 km/h (1 Bft)
17.06.2015 13:00 18,2 C 44 % 1021,9 hPa 0,0 l/m 1,0 km/h (0 Bft) N 1,00 h 0,508 mm 7,0 UV-I 915 W/m 5,6 C 18,1 C 3,0 km/h (1 Bft)
17.06.2015 14:00 18,6 C 43 % 1021,3 hPa 0,0 l/m 1,7 km/h (1 Bft) N 1,00 h 0,508 mm 6,2 UV-I 830 W/m 5,9 C 18,6 C 4,3 km/h (1 Bft)
17.06.2015 15:00 18,5 C 44 % 1020,8 hPa 0,0 l/m 2,4 km/h (1 Bft) S-SO 1,00 h 0,483 mm 4,5 UV-I 594 W/m 6,0 C 18,4 C 5,7 km/h (2 Bft)
17.06.2015 16:00 19,4 C 41 % 1020,3 hPa 0,0 l/m 1,2 km/h (1 Bft) N 1,00 h 0,330 mm 3,7 UV-I 603 W/m 5,9 C 19,4 C 3,1 km/h (1 Bft)
17.06.2015 17:00 19,2 C 40 % 1019,7 hPa 0,0 l/m 1,8 km/h (1 Bft) N 1,00 h 0,356 mm 2,1 UV-I 384 W/m 5,1 C 19,2 C 4,5 km/h (1 Bft)
17.06.2015 18:00 18,2 C 43 % 1019,2 hPa 0,0 l/m 1,0 km/h (0 Bft) N 1,00 h 0,229 mm 1,0 UV-I 68 W/m 5,5 C 18,2 C 3,3 km/h (1 Bft)
17.06.2015 19:00 17,7 C 47 % 1018,9 hPa 0,0 l/m 0,6 km/h (0 Bft) N 1,00 h 0,051 mm 0,6 UV-I 71 W/m 6,2 C 17,7 C 2,0 km/h (1 Bft)
17.06.2015 20:00 17,2 C 50 % 1018,9 hPa 0,0 l/m 0,6 km/h (0 Bft) N 0,18 h 0,051 mm 0,0 UV-I 29 W/m 6,5 C 17,2 C 2,3 km/h (1 Bft)
17.06.2015 21:00 15,7 C 55 % 1018,9 hPa 0,0 l/m 0,0 km/h (0 Bft) N 0,00 h 0,025 mm 0,0 UV-I 5 W/m 6,7 C 15,7 C 0,2 km/h (0 Bft)
17.06.2015 22:00 13,9 C 68 % 1018,9 hPa 0,0 l/m 0,0 km/h (0 Bft) N 0,00 h 0,000 mm 0,0 UV-I 0 W/m 8,0 C 13,9 C 0,0 km/h (0 Bft)
17.06.2015 23:00 12,7 C 77 % 1018,8 hPa 0,0 l/m 0,0 km/h (0 Bft) N 0,00 h 0,025 mm 0,0 UV-I 0 W/m 8,8 C 12,7 C 0,1 km/h (0 Bft)
18.06.2015 00:00 12,6 C 77 % 1018,5 hPa 0,0 l/m 0,0 km/h (0 Bft) N 0,00 h 0,025 mm 0,0 UV-I 0 W/m 8,7 C 12,6 C 0,0 km/h (0 Bft)
18.06.2015 01:00 12,3 C 77 % 1018,0 hPa 0,0 l/m 0,0 km/h (0 Bft) N 0,00 h 0,025 mm 0,0 UV-I 0 W/m 8,4 C 12,3 C 0,0 km/h (0 Bft)
18.06.2015 02:00 12,2 C 77 % 1017,5 hPa 0,0 l/m 0,0 km/h (0 Bft) N 0,00 h 0,025 mm 0,0 UV-I 0 W/m 8,2 C 12,2 C 0,0 km/h (0 Bft)
18.06.2015 03:00 12,4 C 73 % 1016,9 hPa 0,0 l/m 0,0 km/h (0 Bft) N 0,00 h 0,025 mm 0,0 UV-I 0 W/m 7,6 C 12,4 C 0,0 km/h (0 Bft)
18.06.2015 04:00 12,1 C 76 % 1016,4 hPa 0,0 l/m 0,0 km/h (0 Bft) N 0,00 h 0,000 mm 0,0 UV-I 0 W/m 8,0 C 12,1 C 0,0 km/h (0 Bft)
18.06.2015 05:00 12,4 C 71 % 1016,1 hPa 0,0 l/m 0,0 km/h (0 Bft) N 0,00 h 0,025 mm 0,0 UV-I 5 W/m 7,3 C 12,4 C 0,5 km/h (0 Bft)
18.06.2015 06:00 12,0 C 76 % 1016,0 hPa 0,2 l/m 0,2 km/h (0 Bft) N 0,00 h 0,000 mm 0,0 UV-I 16 W/m 7,9 C 12,0 C 0,7 km/h (0 Bft)
18.06.2015 07:00 11,4 C 85 % 1015,7 hPa 0,6 l/m 0,2 km/h (0 Bft) N 0,75 h 0,000 mm 0,5 UV-I 71 W/m 9,0 C 11,4 C 1,5 km/h (1 Bft)
18.06.2015 08:00 11,6 C 89 % 1015,6 hPa 0,4 l/m 0,9 km/h (0 Bft) S 0,95 h 0,025 mm 0,7 UV-I 96 W/m 9,9 C 11,6 C 3,0 km/h (1 Bft)
18.06.2015 09:00 12,3 C 90 % 1015,1 hPa 0,0 l/m 2,1 km/h (1 Bft) S 1,00 h 0,051 mm 1,2 UV-I 170 W/m 10,7 C 12,3 C 5,4 km/h (1 Bft)
18.06.2015 10:00 13,0 C 89 % 1014,8 hPa 0,0 l/m 2,5 km/h (1 Bft) S 1,00 h 0,076 mm 0,9 UV-I 118 W/m 11,1 C 12,9 C 6,5 km/h (2 Bft)
18.06.2015 11:00 13,1 C 92 % 1014,5 hPa 0,2 l/m 2,2 km/h (1 Bft) S 1,00 h 0,051 mm 0,9 UV-I 105 W/m 11,8 C 13,1 C 6,6 km/h (2 Bft)
18.06.2015 12:00 13,3 C 93 % 1014,2 hPa 0,2 l/m 3,8 km/h (1 Bft) SW 1,00 h 0,051 mm 0,9 UV-I 97 W/m 12,3 C 13,1 C 9,7 km/h (2 Bft)
18.06.2015 13:00 13,3 C 94 % 1014,1 hPa 0,0 l/m 3,7 km/h (1 Bft) W-SW 1,00 h 0,051 mm 0,8 UV-I 85 W/m 12,4 C 13,0 C 9,0 km/h (2 Bft)
18.06.2015 14:00 13,8 C 94 % 1013,7 hPa 0,2 l/m 1,0 km/h (0 Bft) N 1,00 h 0,051 mm 0,8 UV-I 89 W/m 12,9 C 13,8 C 3,8 km/h (1 Bft)
18.06.2015 15:00 14,1 C 95 % 1013,4 hPa 0,6 l/m 2,4 km/h (1 Bft) W-SW 1,00 h 0,051 mm 0,9 UV-I 104 W/m 13,3 C 14,0 C 6,5 km/h (2 Bft)
18.06.2015 16:00 14,5 C 95 % 1013,0 hPa 0,0 l/m 3,0 km/h (1 Bft) W-SW 0,67 h 0,051 mm 0,9 UV-I 81 W/m 13,7 C 14,4 C 7,0 km/h (2 Bft)
18.06.2015 17:00 14,4 C 95 % 1012,6 hPa 0,0 l/m 1,1 km/h (1 Bft) N 0,72 h 0,051 mm 0,6 UV-I 62 W/m 13,7 C 14,4 C 3,5 km/h (1 Bft)
18.06.2015 18:00 15,2 C 94 % 1012,2 hPa 0,0 l/m 1,6 km/h (1 Bft) W-SW 1,00 h 0,025 mm 0,6 UV-I 113 W/m 14,2 C 15,2 C 5,2 km/h (1 Bft)
18.06.2015 19:00 15,3 C 93 % 1012,0 hPa 0,2 l/m 0,7 km/h (0 Bft) N 0,27 h 0,051 mm 0,0 UV-I 30 W/m 14,2 C 15,3 C 2,3 km/h (1 Bft)
18.06.2015 20:00 14,9 C 95 % 1012,1 hPa 0,2 l/m 0,4 km/h (0 Bft) N 0,00 h 0,025 mm 0,0 UV-I 16 W/m 14,1 C 14,9 C 1,6 km/h (1 Bft)
18.06.2015 21:00 14,5 C 96 % 1012,4 hPa 0,0 l/m 0,0 km/h (0 Bft) N 0,00 h 0,000 mm 0,0 UV-I 0 W/m 13,8 C 14,5 C 0,0 km/h (0 Bft)
18.06.2015 22:00 14,0 C 96 % 1012,6 hPa 0,0 l/m 0,0 km/h (0 Bft) N 0,00 h 0,000 mm 0,0 UV-I 0 W/m 13,4 C 14,0 C 0,0 km/h (0 Bft)
18.06.2015 23:00 13,8 C 97 % 1012,7 hPa 0,0 l/m 0,0 km/h (0 Bft) N 0,00 h 0,000 mm 0,0 UV-I 0 W/m 13,4 C 13,8 C 0,0 km/h (0 Bft)
19.06.2015 00:00 13,3 C 97 % 1012,9 hPa 0,6 l/m 1,0 km/h (0 Bft) N 0,00 h 0,000 mm 0,0 UV-I 0 W/m 12,8 C 13,3 C 3,6 km/h (1 Bft)
19.06.2015 01:00 12,4 C 95 % 1013,0 hPa 0,0 l/m 1,3 km/h (1 Bft) N 0,00 h 0,000 mm 0,0 UV-I 0 W/m 11,6 C 12,4 C 3,2 km/h (1 Bft)
19.06.2015 02:00 11,9 C 96 % 1013,1 hPa 0,0 l/m 0,0 km/h (0 Bft) N 0,00 h 0,000 mm 0,0 UV-I 0 W/m 11,2 C 11,9 C 0,0 km/h (0 Bft)
19.06.2015 03:00 11,4 C 95 % 1013,2 hPa 0,0 l/m 0,0 km/h (0 Bft) N 0,00 h 0,000 mm 0,0 UV-I 0 W/m 10,6 C 11,4 C 0,1 km/h (0 Bft)
19.06.2015 04:00 10,9 C 96 % 1013,4 hPa 0,0 l/m 0,0 km/h (0 Bft) N 0,00 h 0,000 mm 0,0 UV-I 0 W/m 10,2 C 10,9 C 0,1 km/h (0 Bft)
19.06.2015 05:00 10,6 C 95 % 1013,8 hPa 0,0 l/m 1,9 km/h (1 Bft) N 0,00 h 0,000 mm 0,0 UV-I 6 W/m 9,8 C 10,5 C 5,0 km/h (1 Bft)
19.06.2015 06:00 10,4 C 93 % 1014,2 hPa 0,0 l/m 1,3 km/h (1 Bft) NW 0,22 h 0,000 mm 0,0 UV-I 34 W/m 9,3 C 10,4 C 4,1 km/h (1 Bft)
19.06.2015 07:00 10,3 C 90 % 1014,6 hPa 0,0 l/m 2,5 km/h (1 Bft) NW 0,67 h 0,025 mm 0,6 UV-I 85 W/m 8,7 C 10,3 C 6,9 km/h (2 Bft)
19.06.2015 08:00 11,0 C 87 % 1015,0 hPa 0,0 l/m 1,1 km/h (1 Bft) W-NW 1,00 h 0,051 mm 0,9 UV-I 177 W/m 8,9 C 11,0 C 3,8 km/h (1 Bft)
19.06.2015 09:00 11,4 C 83 % 1015,0 hPa 0,0 l/m 3,1 km/h (1 Bft) NW 1,00 h 0,076 mm 1,2 UV-I 177 W/m 8,7 C 11,3 C 6,5 km/h (2 Bft)
19.06.2015 10:00 11,8 C 80 % 1015,1 hPa 0,0 l/m 4,8 km/h (1 Bft) W-NW 1,00 h 0,102 mm 1,3 UV-I 170 W/m 8,5 C 11,5 C 10,1 km/h (2 Bft)
19.06.2015 11:00 10,7 C 85 % 1015,5 hPa 0,0 l/m 6,4 km/h (2 Bft) N 0,60 h 0,102 mm 0,9 UV-I 69 W/m 8,4 C 9,7 C 11,4 km/h (2 Bft)
19.06.2015 12:00 10,7 C 83 % 1015,8 hPa 0,0 l/m 1,7 km/h (1 Bft) N 1,00 h 0,051 mm 1,4 UV-I 162 W/m 8,0 C 10,7 C 4,0 km/h (1 Bft)
19.06.2015 13:00 12,5 C 77 % 1015,6 hPa 0,0 l/m 1,8 km/h (1 Bft) W 1,00 h 0,076 mm 2,2 UV-I 281 W/m 8,6 C 12,4 C 4,5 km/h (1 Bft)
19.06.2015 14:00 12,8 C 74 % 1015,6 hPa 0,0 l/m 3,7 km/h (1 Bft) NW 1,00 h 0,152 mm 1,7 UV-I 209 W/m 8,2 C 12,4 C 7,7 km/h (2 Bft)
19.06.2015 15:00 12,9 C 75 % 1015,5 hPa 0,0 l/m 1,7 km/h (1 Bft) W-SW 1,00 h 0,127 mm 2,1 UV-I 277 W/m 8,5 C 12,9 C 5,1 km/h (1 Bft)
19.06.2015 16:00 13,4 C 71 % 1015,3 hPa 0,0 l/m 6,5 km/h (2 Bft) W-SW 1,00 h 0,152 mm 1,9 UV-I 358 W/m 8,2 C 12,5 C 13,6 km/h (3 Bft)
19.06.2015 17:00 12,7 C 76 % 1015,3 hPa 0,2 l/m 3,1 km/h (1 Bft) W-SW 0,68 h 0,203 mm 0,8 UV-I 96 W/m 8,6 C 12,5 C 7,3 km/h (2 Bft)
19.06.2015 18:00 12,3 C 77 % 1015,3 hPa 0,0 l/m 3,4 km/h (1 Bft) W-SW 1,00 h 0,051 mm 0,6 UV-I 132 W/m 8,3 C 11,9 C 8,2 km/h (2 Bft)
19.06.2015 19:00 12,1 C 78 % 1015,4 hPa 0,0 l/m 1,5 km/h (1 Bft) W-SW 0,90 h 0,076 mm 0,5 UV-I 90 W/m 8,5 C 12,1 C 4,8 km/h (1 Bft)
19.06.2015 20:00 11,8 C 80 % 1015,7 hPa 0,0 l/m 0,7 km/h (0 Bft) N 0,00 h 0,051 mm 0,0 UV-I 23 W/m 8,4 C 11,8 C 2,3 km/h (1 Bft)
19.06.2015 21:00 11,3 C 80 % 1016,1 hPa 0,0 l/m 0,3 km/h (0 Bft) N 0,00 h 0,026 mm 0,0 UV-I 0 W/m 7,9 C 11,3 C 1,8 km/h (1 Bft)
19.06.2015 22:00 11,0 C 82 % 1016,3 hPa 0,0 l/m 0,2 km/h (0 Bft) N 0,00 h 0,000 mm 0,0 UV-I 0 W/m 8,0 C 11,0 C 1,0 km/h (0 Bft)
19.06.2015 23:00 10,6 C 87 % 1016,3 hPa 0,0 l/m 0,4 km/h (0 Bft) N 0,00 h 0,025 mm 0,0 UV-I 0 W/m 8,5 C 10,6 C 2,0 km/h (1 Bft)
20.06.2015 00:00 10,3 C 88 % 1016,2 hPa 0,0 l/m 0,7 km/h (0 Bft) N 0,00 h 0,000 mm 0,0 UV-I 0 W/m 8,4 C 10,3 C 2,8 km/h (1 Bft)
20.06.2015 01:00 10,2 C 87 % 1016,0 hPa 0,0 l/m 0,6 km/h (0 Bft) N 0,00 h 0,000 mm 0,0 UV-I 0 W/m 8,2 C 10,2 C 2,2 km/h (1 Bft)
20.06.2015 02:00 9,9 C 89 % 1015,9 hPa 0,0 l/m 0,9 km/h (0 Bft) N 0,00 h 0,000 mm 0,0 UV-I 0 W/m 8,3 C 9,9 C 3,0 km/h (1 Bft)
20.06.2015 03:00 9,7 C 88 % 1015,9 hPa 0,0 l/m 1,1 km/h (1 Bft) NW 0,00 h 0,000 mm 0,0 UV-I 0 W/m 7,9 C 9,7 C 3,7 km/h (1 Bft)
20.06.2015 04:00 9,5 C 88 % 1016,0 hPa 0,0 l/m 0,6 km/h (0 Bft) N 0,00 h 0,000 mm 0,0 UV-I 0 W/m 7,5 C 9,5 C 2,1 km/h (1 Bft)
20.06.2015 05:00 9,2 C 89 % 1015,9 hPa 0,0 l/m 0,1 km/h (0 Bft) N 0,00 h 0,000 mm 0,0 UV-I 5 W/m 7,5 C 9,2 C 0,4 km/h (0 Bft)
20.06.2015 06:00 9,1 C 91 % 1015,9 hPa 0,0 l/m 0,4 km/h (0 Bft) N 0,00 h 0,000 mm 0,0 UV-I 23 W/m 7,8 C 9,1 C 1,7 km/h (1 Bft)
20.06.2015 07:00 9,4 C 89 % 1016,2 hPa 0,0 l/m 1,1 km/h (1 Bft) N 0,52 h 0,000 mm 0,6 UV-I 72 W/m 7,7 C 9,4 C 3,6 km/h (1 Bft)
20.06.2015 08:00 10,4 C 85 % 1016,3 hPa 0,0 l/m 1,6 km/h (1 Bft) N 1,00 h 0,025 mm 1,1 UV-I 201 W/m 8,0 C 10,4 C 4,4 km/h (1 Bft)
20.06.2015 09:00 11,3 C 81 % 1016,5 hPa 0,0 l/m 3,7 km/h (1 Bft) NW 1,00 h 0,102 mm 1,2 UV-I 225 W/m 8,1 C 11,1 C 7,9 km/h (2 Bft)
20.06.2015 10:00 11,4 C 80 % 1016,7 hPa 0,0 l/m 3,9 km/h (1 Bft) N 1,00 h 0,127 mm 1,9 UV-I 264 W/m 8,1 C 11,0 C 8,3 km/h (2 Bft)
20.06.2015 11:00 11,5 C 79 % 1016,9 hPa 0,2 l/m 3,5 km/h (1 Bft) N 1,00 h 0,152 mm 1,5 UV-I 211 W/m 7,9 C 11,0 C 6,5 km/h (2 Bft)
20.06.2015 12:00 11,2 C 86 % 1017,1 hPa 0,6 l/m 1,2 km/h (1 Bft) N 1,00 h 0,127 mm 3,0 UV-I 438 W/m 9,0 C 11,2 C 3,1 km/h (1 Bft)
20.06.2015 13:00 13,0 C 79 % 1016,9 hPa 0,2 l/m 4,1 km/h (1 Bft) W 0,93 h 0,229 mm 3,4 UV-I 442 W/m 9,3 C 12,6 C 8,3 km/h (2 Bft)
20.06.2015 14:00 11,2 C 89 % 1017,2 hPa 2,2 l/m 2,4 km/h (1 Bft) N 0,93 h 0,203 mm 2,4 UV-I 267 W/m 9,4 C 10,8 C 4,8 km/h (1 Bft)
20.06.2015 15:00 12,7 C 83 % 1017,1 hPa 0,0 l/m 1,9 km/h (1 Bft) W 1,00 h 0,152 mm 3,6 UV-I 599 W/m 10,0 C 12,6 C 5,1 km/h (1 Bft)
20.06.2015 16:00 12,0 C 84 % 1017,3 hPa 2,8 l/m 4,5 km/h (1 Bft) N 0,75 h 0,305 mm 2,1 UV-I 276 W/m 9,3 C 10,9 C 7,6 km/h (2 Bft)
20.06.2015 17:00 11,6 C 89 % 1017,4 hPa 0,4 l/m 2,8 km/h (1 Bft) N 1,00 h 0,127 mm 1,3 UV-I 253 W/m 9,8 C 11,1 C 5,3 km/h (1 Bft)
20.06.2015 18:00 12,0 C 88 % 1017,4 hPa 0,0 l/m 0,8 km/h (0 Bft) N 1,00 h 0,127 mm 0,7 UV-I 145 W/m 10,1 C 12,0 C 2,7 km/h (1 Bft)
20.06.2015 19:00 12,3 C 82 % 1017,6 hPa 0,0 l/m 3,3 km/h (1 Bft) NW 0,85 h 0,076 mm 0,5 UV-I 76 W/m 9,3 C 12,2 C 7,6 km/h (2 Bft)
20.06.2015 20:00 11,5 C 82 % 1018,1 hPa 0,0 l/m 2,8 km/h (1 Bft) N 0,00 h 0,051 mm 0,0 UV-I 17 W/m 8,5 C 11,4 C 5,4 km/h (2 Bft)
20.06.2015 21:00 10,8 C 87 % 1018,6 hPa 0,0 l/m 0,0 km/h (0 Bft) N 0,00 h 0,025 mm 0,0 UV-I 5 W/m 8,7 C 10,8 C 0,0 km/h (0 Bft)
20.06.2015 22:00 9,9 C 92 % 1019,0 hPa 0,0 l/m 0,0 km/h (0 Bft) N 0,00 h 0,000 mm 0,0 UV-I 0 W/m 8,6 C 9,9 C 0,0 km/h (0 Bft)
20.06.2015 23:00 9,2 C 94 % 1019,2 hPa 0,0 l/m 0,0 km/h (0 Bft) N 0,00 h 0,000 mm 0,0 UV-I 0 W/m 8,2 C 9,2 C 0,0 km/h (0 Bft)
21.06.2015 00:00 8,6 C 95 % 1019,4 hPa 0,0 l/m 0,0 km/h (0 Bft) N 0,00 h 0,000 mm 0,0 UV-I 0 W/m 7,9 C 8,6 C 0,0 km/h (0 Bft)
21.06.2015 01:00 8,7 C 96 % 1019,1 hPa 0,0 l/m 0,0 km/h (0 Bft) N 0,00 h 0,000 mm 0,0 UV-I 0 W/m 8,1 C 8,7 C 0,0 km/h (0 Bft)
21.06.2015 02:00 8,6 C 96 % 1019,0 hPa 0,0 l/m 0,0 km/h (0 Bft) N 0,00 h 0,000 mm 0,0 UV-I 0 W/m 8,0 C 8,6 C 0,0 km/h (0 Bft)
21.06.2015 03:00 8,4 C 96 % 1018,7 hPa 0,0 l/m 0,0 km/h (0 Bft) N 0,00 h 0,000 mm 0,0 UV-I 0 W/m 7,8 C 8,4 C 0,0 km/h (0 Bft)
21.06.2015 04:00 8,4 C 96 % 1018,5 hPa 0,0 l/m 0,0 km/h (0 Bft) N 0,00 h 0,000 mm 0,0 UV-I 0 W/m 7,8 C 8,4 C 0,0 km/h (0 Bft)
21.06.2015 05:00 8,5 C 96 % 1018,5 hPa 0,0 l/m 0,0 km/h (0 Bft) N 0,00 h 0,000 mm 0,0 UV-I 11 W/m 7,9 C 8,5 C 0,0 km/h (0 Bft)
21.06.2015 06:00 8,9 C 96 % 1018,5 hPa 0,0 l/m 0,0 km/h (0 Bft) N 0,27 h 0,000 mm 0,0 UV-I 43 W/m 8,3 C 8,9 C 0,0 km/h (0 Bft)
21.06.2015 07:00 9,8 C 95 % 1018,5 hPa 0,0 l/m 0,0 km/h (0 Bft) N 1,00 h 0,025 mm 0,6 UV-I 129 W/m 9,0 C 9,8 C 0,1 km/h (0 Bft)
21.06.2015 08:00 10,3 C 91 % 1018,7 hPa 0,0 l/m 0,3 km/h (0 Bft) N 1,00 h 0,051 mm 0,8 UV-I 127 W/m 8,9 C 10,3 C 1,0 km/h (0 Bft)
21.06.2015 09:00 10,7 C 88 % 1018,6 hPa 0,0 l/m 1,5 km/h (1 Bft) S-SW 1,00 h 0,051 mm 1,2 UV-I 182 W/m 8,8 C 10,7 C 4,2 km/h (1 Bft)
21.06.2015 10:00 11,8 C 84 % 1018,3 hPa 0,0 l/m 1,0 km/h (0 Bft) N 1,00 h 0,102 mm 2,6 UV-I 382 W/m 9,2 C 11,8 C 2,9 km/h (1 Bft)
21.06.2015 11:00 12,6 C 78 % 1018,0 hPa 0,0 l/m 1,7 km/h (1 Bft) W 1,00 h 0,178 mm 1,9 UV-I 229 W/m 8,9 C 12,6 C 4,3 km/h (1 Bft)
21.06.2015 12:00 12,1 C 80 % 1017,9 hPa 0,2 l/m 3,8 km/h (1 Bft) W-SW 1,00 h 0,127 mm 1,6 UV-I 175 W/m 8,8 C 11,9 C 8,4 km/h (2 Bft)
21.06.2015 13:00 12,1 C 83 % 1017,7 hPa 0,0 l/m 1,3 km/h (1 Bft) N 1,00 h 0,102 mm 1,9 UV-I 227 W/m 9,3 C 12,1 C 3,4 km/h (1 Bft)
21.06.2015 14:00 12,9 C 79 % 1017,4 hPa 0,0 l/m 4,4 km/h (1 Bft) W-SW 1,00 h 0,127 mm 2,0 UV-I 237 W/m 9,3 C 12,5 C 9,1 km/h (2 Bft)
21.06.2015 15:00 12,7 C 79 % 1017,1 hPa 0,0 l/m 3,8 km/h (1 Bft) W-SW 1,00 h 0,127 mm 1,3 UV-I 160 W/m 9,2 C 12,5 C 8,9 km/h (2 Bft)
21.06.2015 16:00 13,1 C 79 % 1017,0 hPa 0,0 l/m 3,6 km/h (1 Bft) W-SW 1,00 h 0,102 mm 1,2 UV-I 166 W/m 9,5 C 13,0 C 8,7 km/h (2 Bft)
21.06.2015 17:00 12,5 C 82 % 1016,7 hPa 0,0 l/m 3,0 km/h (1 Bft) SW 1,00 h 0,102 mm 0,7 UV-I 102 W/m 9,5 C 12,5 C 7,3 km/h (2 Bft)
21.06.2015 18:00 12,7 C 83 % 1016,3 hPa 0,0 l/m 1,6 km/h (1 Bft) W-SW 0,90 h 0,051 mm 0,6 UV-I 83 W/m 9,9 C 12,7 C 4,5 km/h (1 Bft)
21.06.2015 19:00 12,4 C 86 % 1016,1 hPa 0,0 l/m 0,1 km/h (0 Bft) N 0,20 h 0,051 mm 0,0 UV-I 41 W/m 10,1 C 12,4 C 0,6 km/h (0 Bft)
21.06.2015 20:00 12,3 C 87 % 1015,8 hPa 0,0 l/m 0,1 km/h (0 Bft) N 0,15 h 0,025 mm 0,0 UV-I 25 W/m 10,2 C 12,3 C 0,2 km/h (0 Bft)
21.06.2015 21:00 12,0 C 89 % 1015,6 hPa 0,0 l/m 0,0 km/h (0 Bft) N 0,00 h 0,000 mm 0,0 UV-I 0 W/m 10,2 C 12,0 C 0,0 km/h (0 Bft)
21.06.2015 22:00 11,5 C 92 % 1015,4 hPa 0,0 l/m 0,1 km/h (0 Bft) N 0,00 h 0,000 mm 0,0 UV-I 0 W/m 10,2 C 11,5 C 0,5 km/h (0 Bft)
21.06.2015 23:00 11,2 C 93 % 1015,0 hPa 0,0 l/m 0,0 km/h (0 Bft) N 0,00 h 0,000 mm 0,0 UV-I 0 W/m 10,2 C 11,2 C 0,1 km/h (0 Bft)
Min-Datum _ 17.06.15 17.06.15 15.06.15 - 15.06.15 - - - - - 17.06.15 20.06.15 15.06.15
_ Min-Zeit 05:09 16:42 00:00 - 00:03 - - - - - 12:58 16:25 02:15
Minimum _ 6,4 C 36 % 1007,7 hPa - 0,0 km/h (0 Bft) - - - - - 3,1 C 5,9 C 0,0 km/h (0 Bft)
Max-Datum _ 16.06.15 18.06.15 17.06.15 20.06.15 20.06.15 - 21.06.15 17.06.15 16.06.15 16.06.15 18.06.15 16.06.15 20.06.15
_ Max-Zeit 14:23 22:47 06:57 16:19 16:19 - 07:48 13:00 12:38 14:14 18:33 14:23 16:18
Maximum _ 20,0 C 97 % 1023,5 hPa 2,8 l/m 20,9 km/h
N (4 Bft)
- 0,08 h 0,508 mm 7,6 UV-I 1278 W/m 14,6 C 20,0 C 33,8 km/h
N-NW (5 Bft)
Durchschnitt _ 12,7 C 80 % 1016,9 hPa #10,2 l/m 2,1 km/h (1 Bft) N #88:41 h #13,510 mm 1,8 UV-I 201 W/m 9,0 C 12,5 C 4,6 km/h (1 Bft)